Terminal Aerodrome Forecast
Issued by NWS

Home | Current Version | Previous Version | Text Only | Print | Product List | Glossary On
Versions: 1 2 3 4 5 6 7 8 9 10 11 12 13 14 15 16 17 18
000
FTUS46 KSEW 161120
TAFPAE
TAF
KPAE 161120Z 1612/1712 35005KT P6SM SKC
     FM161300 VRB04KT P6SM VCFG FEW002 SCT250
     FM161600 17004KT P6SM SCT250
     FM161800 27006KT P6SM SCT250
     FM170000 33007KT P6SM SCT050 BKN250
     FM170300 35005KT P6SM BKN050 BKN250
     FM170800 VRB04KT P6SM OVC020=

USA.gov is the U.S. government's official web portal to all federal, state and local government web resources and services.